Harlem, Montana
Current Conditions -  °F | °C
As of 10:53 AM on Tuesday 21 Oct 2014 (Local Time) from KHVR Reporting Station
Few Clouds Few Clouds  
Wind Chill: 53°   Ceiling: Unl
Heat Index: 53°   Visibility: 10mi
Dew Point: 39°   Wind: 10mph
Humidity: 59%   Direction: 230°SW
Pressure: 29.64"   Gusts: NA
Location:  48.53°N, 108.78°W
Report Text: KHVR 211653Z AUTO 23009KT 10SM FEW110 12/04 A2964 RMK AO2 SLP040 T01170039
Loading
Personal Weather Stations






























Interactive Weather Map
Tropical Storm Tracking
New forecast layout! Learn more

10-Day Weather Forecast

Advertisements
Track Severe Weather on mobile